createdAt,value
2022-12-27T01:19:08.303Z,86.53
2022-12-27T01:24:51.503Z,85.89
2022-12-27T02:03:59.014Z,85.49
2022-12-27T02:22:09.333Z,85.62
2022-12-27T02:27:58.192Z,85.38
2022-12-27T02:56:31.846Z,85.66
2022-12-27T03:02:05.776Z,85.10
2022-12-27T03:07:27.066Z,84.95
2022-12-27T03:12:57.133Z,85.26
2022-12-27T03:18:11.236Z,85.39
2022-12-27T03:23:36.238Z,85.04
2022-12-27T03:29:03.833Z,85.21
2022-12-27T03:34:25.074Z,85.57
2022-12-27T03:39:42.585Z,85.78
2022-12-27T04:03:19.824Z,85.18
2022-12-27T04:08:40.614Z,84.93
2022-12-27T04:14:05.794Z,85.19
2022-12-27T04:19:29.596Z,85.32
2022-12-27T04:24:50.859Z,85.28
2022-12-27T04:30:11.848Z,85.27
2022-12-27T04:35:18.566Z,85.28
2022-12-27T04:40:38.975Z,84.83
2022-12-27T04:45:59.569Z,85.25
2022-12-27T04:51:21.744Z,84.95
2022-12-27T04:56:28.236Z,84.74
2022-12-27T05:01:49.576Z,84.95
2022-12-27T05:06:56.236Z,85.04
2022-12-27T05:12:16.726Z,85.21
2022-12-27T05:17:25.956Z,84.85
2022-12-27T05:23:20.681Z,84.73
2022-12-27T05:29:11.116Z,84.77
2022-12-27T06:31:30.980Z,85.31
2022-12-27T06:37:11.140Z,85.14
2022-12-27T07:30:05.714Z,84.60
2022-12-27T07:41:54.314Z,84.81
2022-12-27T07:46:57.653Z,85.25
2022-12-27T07:57:48.591Z,85.08
2022-12-27T08:03:04.335Z,85.13
2022-12-27T08:50:25.271Z,84.87
2022-12-27T09:08:53.007Z,84.73
2022-12-27T09:14:39.155Z,84.69
2022-12-27T09:32:19.005Z,84.76
2022-12-27T10:02:43.511Z,84.14
2022-12-27T10:14:07.303Z,84.08
2022-12-27T10:19:28.844Z,83.83
2022-12-27T12:32:58.899Z,77.96
2022-12-27T12:38:50.001Z,78.23
2022-12-27T12:44:41.517Z,78.82
2022-12-27T12:50:22.755Z,79.58
2022-12-27T12:55:40.353Z,79.50
2022-12-27T13:00:58.914Z,79.24
2022-12-27T13:06:16.420Z,79.61
2022-12-27T13:11:36.961Z,80.03
2022-12-27T13:16:54.291Z,79.95
2022-12-27T13:22:14.431Z,79.82
2022-12-27T13:27:28.663Z,79.84
2022-12-27T13:32:50.975Z,79.64
2022-12-27T13:38:08.722Z,79.53
2022-12-27T13:43:37.445Z,79.10
2022-12-27T13:49:02.786Z,78.42
2022-12-27T13:54:31.771Z,78.74
2022-12-27T14:00:01.299Z,79.16
2022-12-27T14:05:45.652Z,78.26
2022-12-27T14:11:01.081Z,78.87
2022-12-27T14:16:38.617Z,79.84
2022-12-27T14:22:07.519Z,79.55
2022-12-27T14:28:06.901Z,79.98
2022-12-27T14:33:48.091Z,80.09
2022-12-27T14:39:36.757Z,79.81
2022-12-27T14:45:20.615Z,80.35
2022-12-27T14:51:58.377Z,78.43
2022-12-27T14:57:06.551Z,79.16
2022-12-27T15:02:36.086Z,79.89
2022-12-27T15:08:02.122Z,80.49
2022-12-27T15:13:16.481Z,81.43
2022-12-27T15:18:48.335Z,81.45
2022-12-27T15:24:05.022Z,82.18
2022-12-27T15:29:41.337Z,82.03
2022-12-27T15:35:12.191Z,81.58
2022-12-27T15:40:26.820Z,81.63
2022-12-27T15:45:49.105Z,81.40
2022-12-27T15:51:01.296Z,81.58
2022-12-27T15:56:26.520Z,82.04
2022-12-27T16:01:32.181Z,81.92
2022-12-27T16:07:04.038Z,82.22
2022-12-27T16:12:36.328Z,82.27
2022-12-27T16:18:00.625Z,82.58
2022-12-27T16:23:08.088Z,82.80
2022-12-27T16:28:26.986Z,82.23
2022-12-27T16:33:42.252Z,83.17
2022-12-27T16:38:51.061Z,83.14
2022-12-27T16:44:10.029Z,82.76
2022-12-27T16:49:47.976Z,83.52
2022-12-27T16:55:06.342Z,83.50
2022-12-27T17:00:42.510Z,83.61
2022-12-27T17:06:22.115Z,82.89
2022-12-27T17:11:30.639Z,82.84
2022-12-27T17:16:43.373Z,83.74
2022-12-27T17:21:58.437Z,84.19
2022-12-27T17:27:10.795Z,84.41
2022-12-27T17:32:28.952Z,84.31
2022-12-27T17:37:43.856Z,84.04
2022-12-27T17:43:17.551Z,83.64
2022-12-27T17:48:28.770Z,84.19
